createdAt,value
2018-02-07T00:00:57.709Z,-3.71
2018-02-07T00:03:26.132Z,-3.67
2018-02-07T00:05:54.488Z,-3.63
2018-02-07T00:08:22.856Z,-3.67
2018-02-07T00:10:51.222Z,-3.70
2018-02-07T00:13:19.620Z,-3.68
2018-02-07T00:15:47.993Z,-3.71
2018-02-07T00:18:16.342Z,-3.63
2018-02-07T00:20:44.724Z,-3.74
2018-02-07T00:23:13.082Z,-3.82
2018-02-07T00:25:42.228Z,-3.85
2018-02-07T00:28:10.612Z,-3.85
2018-02-07T00:30:38.976Z,-3.78
2018-02-07T00:33:07.352Z,-3.76
2018-02-07T00:35:35.728Z,-3.80
2018-02-07T00:38:04.076Z,-3.86
2018-02-07T00:40:32.447Z,-3.85
2018-02-07T00:43:01.585Z,-3.83
2018-02-07T00:45:30.010Z,-3.84
2018-02-07T00:47:58.409Z,-3.85
2018-02-07T00:50:26.792Z,-3.87
2018-02-07T00:52:55.548Z,-3.90
2018-02-07T00:55:24.372Z,-3.96
2018-02-07T00:57:52.736Z,-4.00
2018-02-07T01:00:21.128Z,-4.09
2018-02-07T01:02:49.504Z,-4.13
2018-02-07T01:05:17.904Z,-4.10
2018-02-07T01:07:46.304Z,-4.15
2018-02-07T01:10:14.688Z,-4.16
2018-02-07T01:12:43.062Z,-4.11
2018-02-07T01:15:11.449Z,-4.10
2018-02-07T01:17:39.797Z,-4.13
2018-02-07T01:20:08.144Z,-4.16
2018-02-07T01:22:36.569Z,-4.20
2018-02-07T01:25:04.936Z,-4.22
2018-02-07T01:27:33.320Z,-4.14
2018-02-07T01:30:01.701Z,-4.13
2018-02-07T01:32:30.087Z,-4.16
2018-02-07T01:34:58.840Z,-4.22
2018-02-07T01:37:27.208Z,-4.24
2018-02-07T01:39:55.560Z,-4.24
2018-02-07T01:42:24.342Z,-4.21
2018-02-07T01:44:52.704Z,-4.21
2018-02-07T01:47:22.465Z,-4.14
2018-02-07T01:49:50.849Z,-4.29
2018-02-07T01:52:19.636Z,-4.16
2018-02-07T01:54:48.388Z,-4.22
2018-02-07T01:57:17.539Z,-4.26
2018-02-07T01:59:45.891Z,-4.35
2018-02-07T02:02:14.237Z,-4.39
2018-02-07T02:04:43.387Z,-4.41
2018-02-07T02:07:11.739Z,-4.46
2018-02-07T02:09:40.122Z,-4.52
2018-02-07T02:12:09.628Z,-4.56
2018-02-07T02:14:38.020Z,-4.61
2018-02-07T02:17:07.131Z,-4.64
2018-02-07T02:19:35.884Z,-4.71
2018-02-07T02:22:04.268Z,-4.75
2018-02-07T02:24:33.461Z,-4.75
2018-02-07T02:27:02.620Z,-4.76
2018-02-07T02:29:31.735Z,-4.80
2018-02-07T02:32:00.132Z,-4.90
2018-02-07T02:34:29.264Z,-4.97
2018-02-07T02:36:58.621Z,-5.05
2018-02-07T02:39:27.008Z,-5.12
2018-02-07T02:41:55.399Z,-5.13
2018-02-07T02:44:23.752Z,-5.13
2018-02-07T02:46:52.892Z,-5.05
2018-02-07T02:49:21.667Z,-4.84
2018-02-07T02:51:50.455Z,-4.77
2018-02-07T02:54:18.811Z,-4.79
2018-02-07T02:56:47.193Z,-4.82
2018-02-07T02:59:16.684Z,-4.75
2018-02-07T03:01:45.471Z,-4.70
2018-02-07T03:04:14.595Z,-4.60
2018-02-07T03:06:43.023Z,-4.51
2018-02-07T03:09:11.400Z,-4.57
2018-02-07T03:11:39.779Z,-4.61
2018-02-07T03:14:08.163Z,-4.62
2018-02-07T03:16:37.335Z,-4.47
2018-02-07T03:19:05.683Z,-4.44
2018-02-07T03:21:34.431Z,-4.42
2018-02-07T03:24:03.588Z,-4.52
2018-02-07T03:26:32.372Z,-4.68
2018-02-07T03:29:00.751Z,-4.80
2018-02-07T03:31:29.123Z,-4.90
2018-02-07T03:33:57.491Z,-4.96
2018-02-07T03:36:25.866Z,-5.04
2018-02-07T03:38:54.207Z,-5.06
2018-02-07T03:41:23.371Z,-5.13
2018-02-07T03:43:52.479Z,-5.19
2018-02-07T03:46:20.854Z,-5.28
2018-02-07T03:48:49.254Z,-5.34
2018-02-07T03:51:18.378Z,-5.34
2018-02-07T03:53:46.798Z,-5.24
2018-02-07T03:56:15.146Z,-5.24
2018-02-07T03:58:43.535Z,-5.27
2018-02-07T04:01:12.731Z,-5.33
2018-02-07T04:03:41.875Z,-5.33
2018-02-07T04:06:11.003Z,-5.35
2018-02-07T04:08:40.167Z,-5.31
2018-02-07T04:11:09.323Z,-5.43
2018-02-07T04:13:37.686Z,-5.30
2018-02-07T04:16:06.059Z,-5.25
2018-02-07T04:18:34.399Z,-5.22
2018-02-07T04:21:03.514Z,-5.13
2018-02-07T04:23:31.895Z,-5.07
2018-02-07T04:26:00.234Z,-5.05
2018-02-07T04:28:28.642Z,-5.04
2018-02-07T04:30:56.983Z,-5.01
2018-02-07T04:33:25.342Z,-5.02
2018-02-07T04:35:53.739Z,-4.98
2018-02-07T04:38:22.478Z,-4.96
2018-02-07T04:40:50.820Z,-4.99
2018-02-07T04:43:19.978Z,-4.99
2018-02-07T04:45:48.326Z,-5.02
2018-02-07T04:48:16.698Z,-4.99
2018-02-07T04:50:45.043Z,-5.01
2018-02-07T04:53:13.414Z,-5.03
2018-02-07T04:55:41.806Z,-5.04
2018-02-07T04:58:11.662Z,-5.01
2018-02-07T05:00:40.038Z,-4.97
2018-02-07T05:03:08.411Z,-4.90
2018-02-07T05:05:36.844Z,-4.86
2018-02-07T05:08:05.201Z,-4.82
2018-02-07T05:10:33.566Z,-4.78
2018-02-07T05:13:01.966Z,-4.79
2018-02-07T05:15:30.322Z,-4.75
2018-02-07T05:18:00.206Z,-4.68
2018-02-07T05:20:28.586Z,-4.69
2018-02-07T05:22:57.810Z,-4.68
2018-02-07T05:25:26.193Z,-4.62
2018-02-07T05:27:54.534Z,-4.49
2018-02-07T05:30:22.910Z,-4.40
2018-02-07T05:32:51.265Z,-4.44
2018-02-07T05:35:20.417Z,-4.42
2018-02-07T05:37:48.794Z,-4.42
2018-02-07T05:40:17.178Z,-4.44
2018-02-07T05:42:45.527Z,-4.46
2018-02-07T05:45:13.881Z,-4.48
2018-02-07T05:47:43.038Z,-4.52
2018-02-07T05:50:11.422Z,-4.58
2018-02-07T05:52:39.769Z,-4.66
2018-02-07T05:55:08.137Z,-4.72
2018-02-07T05:57:36.490Z,-4.73
2018-02-07T06:00:05.645Z,-4.77
2018-02-07T06:02:34.030Z,-4.87
2018-02-07T06:05:02.426Z,-4.99
2018-02-07T06:07:31.173Z,-5.05
2018-02-07T06:09:59.562Z,-5.16
2018-02-07T06:12:27.909Z,-5.24
2018-02-07T06:14:56.261Z,-5.29
2018-02-07T06:17:25.389Z,-5.33
2018-02-07T06:19:53.734Z,-5.41
2018-02-07T06:22:22.881Z,-5.46
2018-02-07T06:24:51.238Z,-5.44
2018-02-07T06:27:20.034Z,-5.46
2018-02-07T06:29:48.393Z,-5.44
2018-02-07T06:32:16.765Z,-5.43
2018-02-07T06:34:45.986Z,-5.42
2018-02-07T06:37:14.381Z,-5.40
2018-02-07T06:39:42.737Z,-5.36
2018-02-07T06:42:11.088Z,-5.29
2018-02-07T06:44:39.481Z,-5.26
2018-02-07T06:47:07.858Z,-5.27
2018-02-07T06:49:36.205Z,-5.24
2018-02-07T06:52:04.545Z,-5.78
2018-02-07T06:54:32.933Z,-5.14
2018-02-07T06:57:02.085Z,-5.14
2018-02-07T06:59:31.249Z,-4.95
2018-02-07T07:02:00.029Z,-4.75
2018-02-07T07:04:28.425Z,-4.58
2018-02-07T07:06:56.795Z,-4.35
2018-02-07T07:09:25.181Z,-3.98
2018-02-07T07:11:54.321Z,-3.93
2018-02-07T07:14:22.721Z,-4.11
2018-02-07T07:16:51.512Z,-3.75
2018-02-07T07:19:22.545Z,-3.50
2018-02-07T07:21:50.933Z,-3.48
2018-02-07T07:24:19.641Z,-3.39
2018-02-07T07:26:48.877Z,-3.31
2018-02-07T07:29:17.253Z,-3.55
2018-02-07T07:31:45.707Z,-3.24
2018-02-07T07:34:14.113Z,-3.21
2018-02-07T07:36:42.552Z,-3.20
2018-02-07T07:39:10.921Z,-3.04
2018-02-07T07:41:39.335Z,-3.18
2018-02-07T07:44:09.960Z,-2.91
2018-02-07T07:46:39.174Z,-2.86
2018-02-07T07:49:07.942Z,-2.73
2018-02-07T07:51:37.097Z,-2.64
2018-02-07T07:54:05.841Z,-2.35
2018-02-07T07:56:34.988Z,-2.69
2018-02-07T07:59:03.370Z,-2.50
2018-02-07T08:01:31.740Z,-2.44
2018-02-07T08:04:00.122Z,-2.35
2018-02-07T08:06:29.250Z,-1.82
2018-02-07T08:08:58.642Z,-1.33
2018-02-07T08:11:26.990Z,-1.24
2018-02-07T08:13:55.410Z,-1.65
2018-02-07T08:16:24.525Z,-1.62
2018-02-07T08:18:52.915Z,-1.73
2018-02-07T08:21:21.272Z,-1.61
2018-02-07T08:23:50.425Z,-1.22
2018-02-07T08:26:18.789Z,-1.24
2018-02-07T08:28:47.172Z,-0.96
2018-02-07T08:31:15.560Z,-0.23
2018-02-07T08:33:43.968Z,0.24
2018-02-07T08:36:13.113Z,0.55
2018-02-07T08:38:41.484Z,0.27
2018-02-07T08:41:09.856Z,-0.16
2018-02-07T08:43:38.259Z,-0.45
2018-02-07T08:46:06.640Z,0.07
2018-02-07T08:48:34.976Z,0.54
2018-02-07T08:51:04.118Z,0.60
2018-02-07T08:53:32.496Z,0.90
2018-02-07T08:56:00.840Z,0.59
2018-02-07T08:58:29.181Z,0.47
2018-02-07T09:00:58.321Z,-0.19
2018-02-07T09:03:26.682Z,0.05
2018-02-07T09:05:55.057Z,0.64
2018-02-07T09:08:23.416Z,0.39
2018-02-07T09:10:52.556Z,0.34
2018-02-07T09:13:22.065Z,0.73
2018-02-07T09:15:50.457Z,0.70
2018-02-07T09:18:18.833Z,1.34
2018-02-07T09:20:47.216Z,0.73
2018-02-07T09:23:15.568Z,0.61
2018-02-07T09:25:43.912Z,0.62
2018-02-07T09:28:12.297Z,1.27
2018-02-07T09:30:40.654Z,1.04
2018-02-07T09:33:09.032Z,0.94
2018-02-07T09:35:37.377Z,0.92
2018-02-07T09:38:05.776Z,0.44
2018-02-07T09:40:34.145Z,-0.03
2018-02-07T09:43:02.491Z,0.04
2018-02-07T09:45:30.861Z,-0.27
2018-02-07T09:47:59.244Z,-0.17
2018-02-07T09:50:27.638Z,0.01
2018-02-07T09:52:56.792Z,-0.46
2018-02-07T09:55:25.964Z,-0.56
2018-02-07T09:57:54.318Z,-0.59
2018-02-07T10:00:22.690Z,-0.61
2018-02-07T10:02:51.088Z,-0.52
2018-02-07T10:05:19.463Z,-0.45
2018-02-07T10:07:47.856Z,-0.38
2018-02-07T10:10:16.236Z,-0.22
2018-02-07T10:12:44.584Z,-0.08
2018-02-07T10:15:12.984Z,-0.20
2018-02-07T10:17:41.331Z,-0.11
2018-02-07T10:20:09.671Z,-0.15
2018-02-07T10:22:38.853Z,0.00
2018-02-07T10:25:07.232Z,-0.06
2018-02-07T10:27:35.587Z,-0.10
2018-02-07T10:30:03.968Z,0.00
2018-02-07T10:32:32.344Z,0.02
2018-02-07T10:35:00.764Z,0.05
2018-02-07T10:37:29.911Z,0.19
2018-02-07T10:39:58.291Z,0.22
2018-02-07T10:42:26.667Z,0.32
2018-02-07T10:44:55.032Z,0.32
2018-02-07T10:47:23.408Z,0.26
2018-02-07T10:49:51.804Z,0.26
2018-02-07T10:52:20.160Z,0.37
2018-02-07T10:54:48.550Z,0.38
2018-02-07T10:57:16.959Z,0.31
2018-02-07T10:59:45.623Z,0.48
2018-02-07T11:02:14.167Z,0.68
2018-02-07T11:04:42.555Z,0.78
2018-02-07T11:07:11.709Z,0.68
2018-02-07T11:09:40.083Z,0.65
2018-02-07T11:12:09.270Z,0.79
2018-02-07T11:14:38.012Z,0.61
2018-02-07T11:17:06.356Z,0.78
2018-02-07T11:19:35.499Z,0.73
2018-02-07T11:22:03.879Z,0.76
2018-02-07T11:24:32.285Z,0.83
2018-02-07T11:27:00.671Z,0.81
2018-02-07T11:29:29.011Z,0.94
2018-02-07T11:31:57.408Z,1.03
2018-02-07T11:34:25.824Z,1.00
2018-02-07T11:36:54.986Z,1.08
2018-02-07T11:39:23.365Z,0.97
2018-02-07T11:41:51.722Z,1.08
2018-02-07T11:44:20.099Z,1.03
2018-02-07T11:46:48.437Z,1.05
2018-02-07T11:49:17.589Z,1.21
2018-02-07T11:51:45.931Z,1.18
2018-02-07T11:54:14.339Z,1.08
2018-02-07T11:56:42.681Z,1.13
2018-02-07T11:59:11.039Z,1.24
2018-02-07T12:01:40.182Z,1.24
2018-02-07T12:04:08.571Z,1.35
2018-02-07T12:06:36.915Z,1.30
2018-02-07T12:09:05.299Z,1.35
2018-02-07T12:11:33.663Z,1.41
2018-02-07T12:14:01.995Z,1.42
2018-02-07T12:16:30.383Z,1.50
2018-02-07T12:18:58.726Z,1.43
2018-02-07T12:21:27.091Z,1.43
2018-02-07T12:23:55.441Z,1.37
2018-02-07T12:26:24.575Z,1.41
2018-02-07T12:28:52.923Z,1.42
2018-02-07T12:31:21.323Z,1.52
2018-02-07T12:33:49.649Z,1.51
2018-02-07T12:36:18.035Z,1.44
2018-02-07T12:38:47.225Z,1.46
2018-02-07T12:41:15.583Z,1.57
2018-02-07T12:43:43.932Z,1.67
2018-02-07T12:46:12.310Z,1.70
2018-02-07T12:48:40.652Z,1.70
2018-02-07T12:51:08.974Z,1.61
2018-02-07T12:53:37.391Z,1.59
2018-02-07T12:56:05.730Z,1.75
2018-02-07T12:58:34.106Z,1.82
2018-02-07T13:01:02.510Z,1.86
2018-02-07T13:03:31.075Z,1.81
2018-02-07T13:05:59.434Z,1.84
2018-02-07T13:08:27.811Z,1.91
2018-02-07T13:10:56.728Z,2.03
2018-02-07T13:13:25.079Z,2.03
2018-02-07T13:15:53.450Z,2.03
2018-02-07T13:18:21.785Z,2.08
2018-02-07T13:20:50.161Z,1.99
2018-02-07T13:23:18.498Z,1.90
2018-02-07T13:25:46.878Z,1.97
2018-02-07T13:28:15.282Z,1.93
2018-02-07T13:30:43.626Z,1.88
2018-02-07T13:33:12.016Z,1.85
2018-02-07T13:35:40.358Z,1.91
2018-02-07T13:38:08.694Z,1.89
2018-02-07T13:40:37.073Z,1.89
2018-02-07T13:43:05.458Z,1.94
2018-02-07T13:45:33.798Z,2.00
2018-02-07T13:48:02.186Z,1.93
2018-02-07T13:50:30.549Z,2.00
2018-02-07T13:52:58.894Z,2.04
2018-02-07T13:55:28.043Z,2.00
2018-02-07T13:57:56.381Z,2.06
2018-02-07T14:00:24.776Z,1.95
2018-02-07T14:02:53.124Z,1.89
2018-02-07T14:05:22.266Z,1.91
2018-02-07T14:07:50.625Z,1.89
2018-02-07T14:10:18.992Z,1.85
2018-02-07T14:12:47.342Z,1.92
2018-02-07T14:15:16.494Z,1.93
2018-02-07T14:17:44.841Z,1.88
2018-02-07T14:20:13.218Z,1.86
2018-02-07T14:22:41.600Z,1.80
2018-02-07T14:25:09.955Z,1.78
2018-02-07T14:27:39.106Z,1.77
2018-02-07T14:30:07.474Z,1.74
2018-02-07T14:32:35.859Z,1.67
2018-02-07T14:35:04.230Z,1.59
2018-02-07T14:37:32.588Z,1.60
2018-02-07T14:40:00.962Z,1.59
2018-02-07T14:42:29.372Z,1.58
2018-02-07T14:44:57.754Z,1.55
2018-02-07T14:47:26.093Z,1.54
2018-02-07T14:49:54.442Z,1.48
2018-02-07T14:52:23.583Z,1.48
2018-02-07T14:54:51.938Z,1.47
2018-02-07T14:57:20.318Z,1.44
2018-02-07T14:59:48.674Z,1.42
2018-02-07T15:02:17.829Z,1.36
2018-02-07T15:04:46.293Z,1.31
2018-02-07T15:07:14.675Z,1.28
2018-02-07T15:09:43.013Z,1.27
2018-02-07T15:12:12.153Z,1.24
2018-02-07T15:14:40.502Z,1.13
2018-02-07T15:17:08.885Z,1.13
2018-02-07T15:19:37.226Z,1.18
2018-02-07T15:22:07.107Z,1.08
2018-02-07T15:24:35.489Z,1.03
2018-02-07T15:27:03.861Z,0.99
2018-02-07T15:29:32.264Z,0.93
2018-02-07T15:32:00.617Z,0.89
2018-02-07T15:34:29.003Z,0.80
2018-02-07T15:36:57.389Z,0.71
2018-02-07T15:39:25.769Z,0.68
2018-02-07T15:41:54.114Z,0.62
2018-02-07T15:44:22.539Z,0.54
2018-02-07T15:46:50.906Z,0.49
2018-02-07T15:49:19.297Z,0.48
2018-02-07T15:51:47.729Z,0.43
2018-02-07T15:54:16.069Z,0.37
2018-02-07T15:56:45.215Z,0.28
2018-02-07T15:59:13.562Z,0.15
2018-02-07T16:01:41.949Z,0.05
2018-02-07T16:04:10.308Z,0.03
2018-02-07T16:06:39.441Z,-0.04
2018-02-07T16:09:07.829Z,0.05
2018-02-07T16:11:36.193Z,0.07
2018-02-07T16:14:04.593Z,-0.02
2018-02-07T16:16:32.981Z,-0.03
2018-02-07T16:19:01.338Z,-0.14
2018-02-07T16:21:29.724Z,-0.12
2018-02-07T16:23:58.085Z,-0.06
2018-02-07T16:26:26.464Z,-0.12
2018-02-07T16:28:54.913Z,-0.12
2018-02-07T16:31:23.272Z,-0.09
2018-02-07T16:33:53.030Z,-0.24
2018-02-07T16:36:21.437Z,-0.40
2018-02-07T16:38:49.904Z,-0.44
2018-02-07T16:41:18.506Z,-0.45
2018-02-07T16:43:47.766Z,-0.42
2018-02-07T16:46:16.363Z,-0.43
2018-02-07T16:48:44.830Z,-0.43
2018-02-07T16:51:14.113Z,-0.58
2018-02-07T16:53:42.478Z,-0.66
2018-02-07T16:56:11.622Z,-0.70
2018-02-07T16:58:39.974Z,-0.71
2018-02-07T17:01:08.338Z,-0.88
2018-02-07T17:03:36.725Z,-0.94
2018-02-07T17:06:05.084Z,-1.05
2018-02-07T17:08:34.454Z,-0.97
2018-02-07T17:11:02.869Z,-1.10
2018-02-07T17:13:31.678Z,-1.05
2018-02-07T17:16:00.066Z,-0.84
2018-02-07T17:18:28.417Z,-0.82
2018-02-07T17:20:57.573Z,-0.79
2018-02-07T17:23:25.964Z,-0.82
2018-02-07T17:25:54.305Z,-0.74
2018-02-07T17:28:22.694Z,-0.83
2018-02-07T17:30:51.066Z,-0.89
2018-02-07T17:33:19.460Z,-1.06
2018-02-07T17:35:47.862Z,-1.19
2018-02-07T17:38:16.213Z,-1.15
2018-02-07T17:40:44.608Z,-1.09
2018-02-07T17:43:12.968Z,-0.96
2018-02-07T17:45:41.382Z,-0.96
2018-02-07T17:48:10.524Z,-0.96
2018-02-07T17:50:38.929Z,-1.06
2018-02-07T17:53:07.335Z,-1.12
2018-02-07T17:55:36.340Z,-1.14
2018-02-07T17:58:04.757Z,-1.31
2018-02-07T18:00:33.240Z,-1.41
2018-02-07T18:03:01.606Z,-1.47
2018-02-07T18:05:29.980Z,-1.52
2018-02-07T18:07:58.332Z,-1.50
2018-02-07T18:10:27.837Z,-1.49
2018-02-07T18:12:56.238Z,-1.64
2018-02-07T18:15:24.618Z,-1.56
2018-02-07T18:17:52.991Z,-1.60
2018-02-07T18:20:21.364Z,-1.62
2018-02-07T18:22:49.845Z,-1.73
2018-02-07T18:25:18.208Z,-1.71
2018-02-07T18:27:47.372Z,-1.82
2018-02-07T18:30:15.779Z,-1.90
2018-02-07T18:32:44.916Z,-1.94
2018-02-07T18:35:13.321Z,-1.99
2018-02-07T18:37:41.908Z,-1.99
2018-02-07T18:40:11.077Z,-2.11
2018-02-07T18:42:39.441Z,-2.23
2018-02-07T18:45:07.834Z,-2.27
2018-02-07T18:47:39.255Z,-2.30
2018-02-07T18:50:12.196Z,-2.31
2018-02-07T18:52:40.795Z,-2.20
2018-02-07T18:55:09.965Z,-2.10
2018-02-07T18:57:38.447Z,-2.03
2018-02-07T19:00:06.848Z,-2.10
2018-02-07T19:02:35.405Z,-2.08
2018-02-07T19:05:04.153Z,-2.10
2018-02-07T19:07:32.501Z,-2.10
2018-02-07T19:10:01.645Z,-2.14
2018-02-07T19:12:30.041Z,-2.15
2018-02-07T19:14:58.421Z,-2.15
2018-02-07T19:17:27.644Z,-2.18
2018-02-07T19:19:56.420Z,-2.28
2018-02-07T19:22:24.841Z,-2.34
2018-02-07T19:24:54.581Z,-2.37
2018-02-07T19:27:26.160Z,-2.40
2018-02-07T19:29:54.511Z,-2.36
2018-02-07T19:32:23.907Z,-2.23
2018-02-07T19:34:52.268Z,-2.30
2018-02-07T19:37:20.613Z,-2.30
2018-02-07T19:39:49.605Z,-2.37
2018-02-07T19:42:18.379Z,-2.34
2018-02-07T19:44:46.803Z,-2.35
2018-02-07T19:47:15.177Z,-2.42
2018-02-07T19:49:44.331Z,-2.41
2018-02-07T19:52:14.188Z,-2.37
2018-02-07T19:54:42.551Z,-2.30
2018-02-07T19:57:10.901Z,-2.29
2018-02-07T19:59:39.307Z,-2.31
2018-02-07T20:02:08.436Z,-2.31
2018-02-07T20:04:36.787Z,-2.33
2018-02-07T20:07:06.824Z,-2.38
2018-02-07T20:09:35.174Z,-2.38
2018-02-07T20:12:03.562Z,-2.37
2018-02-07T20:14:32.728Z,-2.40
2018-02-07T20:17:01.892Z,-2.36
2018-02-07T20:19:30.248Z,-2.43
2018-02-07T20:21:58.680Z,-2.41
2018-02-07T20:24:27.899Z,-2.35
2018-02-07T20:26:57.806Z,-2.34
2018-02-07T20:29:27.734Z,-2.35
2018-02-07T20:31:57.486Z,-2.35
2018-02-07T20:34:25.903Z,-2.33
2018-02-07T20:36:54.924Z,-2.33
2018-02-07T20:39:24.087Z,-2.26
2018-02-07T20:41:52.461Z,-2.23
2018-02-07T20:44:22.194Z,-2.22
2018-02-07T20:46:50.634Z,-2.18
2018-02-07T20:49:19.047Z,-2.06
2018-02-07T20:51:49.855Z,-1.99
2018-02-07T20:54:18.251Z,-1.89
2018-02-07T20:56:47.555Z,-1.83
2018-02-07T20:59:16.662Z,-1.75
2018-02-07T21:01:45.847Z,-1.67
2018-02-07T21:04:15.754Z,-1.62
2018-02-07T21:06:44.304Z,-1.52
2018-02-07T21:09:13.322Z,-1.45
2018-02-07T21:11:41.719Z,-1.43
2018-02-07T21:14:10.867Z,-1.38
2018-02-07T21:16:41.324Z,-1.33
2018-02-07T21:19:09.714Z,-1.31
2018-02-07T21:21:38.871Z,-1.24
2018-02-07T21:24:07.258Z,-1.17
2018-02-07T21:26:35.638Z,-1.24
2018-02-07T21:29:04.030Z,-1.21
2018-02-07T21:31:32.377Z,-1.18
2018-02-07T21:34:01.930Z,-1.13
2018-02-07T21:36:30.338Z,-1.12
2018-02-07T21:38:59.591Z,-1.06
2018-02-07T21:41:27.917Z,-1.02
2018-02-07T21:43:57.798Z,-1.02
2018-02-07T21:46:26.179Z,-1.00
2018-02-07T21:48:55.259Z,-1.01
2018-02-07T21:51:23.626Z,-1.03
2018-02-07T21:53:52.074Z,-0.96
2018-02-07T21:56:20.816Z,-0.71
2018-02-07T21:58:49.254Z,-0.68
2018-02-07T22:01:18.327Z,-0.54
2018-02-07T22:03:46.716Z,-0.52
2018-02-07T22:06:15.059Z,-0.54
2018-02-07T22:08:43.446Z,-0.68
2018-02-07T22:11:11.822Z,-0.76
2018-02-07T22:13:40.155Z,-0.89
2018-02-07T22:16:08.518Z,-0.87
2018-02-07T22:18:36.850Z,-0.96
2018-02-07T22:21:05.252Z,-1.07
2018-02-07T22:23:33.639Z,-1.14
2018-02-07T22:26:01.998Z,-1.21
2018-02-07T22:28:30.397Z,-1.12
2018-02-07T22:30:58.766Z,-0.90
2018-02-07T22:33:27.102Z,-0.83
2018-02-07T22:35:55.561Z,-0.89
2018-02-07T22:38:23.943Z,-1.05
2018-02-07T22:40:52.288Z,-1.18
2018-02-07T22:43:20.673Z,-1.25
2018-02-07T22:45:49.017Z,-1.27
2018-02-07T22:48:17.368Z,-1.23
2018-02-07T22:50:45.753Z,-1.12
2018-02-07T22:53:14.089Z,-1.15
2018-02-07T22:55:42.477Z,-1.22
2018-02-07T22:58:10.820Z,-1.22
2018-02-07T23:00:39.172Z,-1.22
2018-02-07T23:03:08.319Z,-1.13
2018-02-07T23:05:36.705Z,-1.07
2018-02-07T23:08:05.084Z,-1.04
2018-02-07T23:10:33.489Z,-0.95
2018-02-07T23:13:02.238Z,-0.97
2018-02-07T23:15:30.621Z,-1.02
2018-02-07T23:17:59.060Z,-1.02
2018-02-07T23:20:27.393Z,-1.00
2018-02-07T23:22:55.769Z,-0.99
2018-02-07T23:25:24.573Z,-0.99
2018-02-07T23:27:53.369Z,-0.94
2018-02-07T23:30:21.735Z,-0.97
2018-02-07T23:32:50.137Z,-1.04
2018-02-07T23:35:19.329Z,-1.06
2018-02-07T23:37:47.754Z,-1.06
2018-02-07T23:40:16.109Z,-1.07
2018-02-07T23:42:44.505Z,-1.15
2018-02-07T23:45:12.881Z,-1.21
2018-02-07T23:47:41.289Z,-1.23
2018-02-07T23:50:09.643Z,-1.20
2018-02-07T23:52:38.001Z,-1.10
2018-02-07T23:55:06.377Z,-1.02
2018-02-07T23:57:34.741Z,-0.92
